createdAt,value
2022-08-17T00:01:02.098Z,16.10
2022-08-17T00:03:38.545Z,16.06
2022-08-17T00:06:08.586Z,15.78
2022-08-17T00:08:37.106Z,16.07
2022-08-17T00:11:08.866Z,16.25
2022-08-17T00:13:37.770Z,16.11
2022-08-17T00:16:09.458Z,16.17
2022-08-17T00:19:04.184Z,15.95
2022-08-17T00:21:23.932Z,15.68
2022-08-17T00:23:52.415Z,15.93
2022-08-17T00:26:44.198Z,16.05
2022-08-17T00:29:07.100Z,16.13
2022-08-17T00:31:35.621Z,15.77
2022-08-17T00:34:03.034Z,15.76
2022-08-17T00:36:29.942Z,16.05
2022-08-17T00:38:56.740Z,15.70
2022-08-17T00:41:24.773Z,15.50
2022-08-17T00:43:54.128Z,15.80
2022-08-17T00:46:42.218Z,15.91
2022-08-17T00:49:09.323Z,15.34
2022-08-17T00:51:45.158Z,15.26
2022-08-17T00:54:13.505Z,15.61
2022-08-17T00:57:01.572Z,15.84
2022-08-17T00:59:33.035Z,15.81
2022-08-17T01:01:59.920Z,15.51
2022-08-17T01:04:26.632Z,15.31
2022-08-17T01:06:53.304Z,15.12
2022-08-17T01:09:20.041Z,15.39
2022-08-17T01:11:47.051Z,15.28
2022-08-17T01:14:14.504Z,15.57
2022-08-17T01:16:41.103Z,15.78
2022-08-17T01:19:29.465Z,15.15
2022-08-17T01:22:11.375Z,15.94
2022-08-17T01:24:43.205Z,15.89
2022-08-17T01:27:10.724Z,15.32
2022-08-17T01:29:38.513Z,15.47
2022-08-17T01:32:05.746Z,15.25
2022-08-17T01:34:43.924Z,15.33
2022-08-17T01:37:17.154Z,15.26
2022-08-17T01:39:47.728Z,15.65
2022-08-17T01:42:14.289Z,15.65
2022-08-17T01:44:41.187Z,15.02
2022-08-17T01:47:07.824Z,15.30
2022-08-17T01:49:34.450Z,14.93
2022-08-17T01:52:08.891Z,15.51
2022-08-17T01:54:35.606Z,15.25
2022-08-17T01:57:02.332Z,15.46
2022-08-17T01:59:29.011Z,15.16
2022-08-17T02:01:55.804Z,15.46
2022-08-17T02:04:22.697Z,15.10
2022-08-17T02:06:54.163Z,15.00
2022-08-17T02:09:29.571Z,15.51
2022-08-17T02:11:57.633Z,14.84
2022-08-17T02:14:24.699Z,14.92
2022-08-17T02:16:51.879Z,13.63
2022-08-17T02:19:18.747Z,14.99
2022-08-17T02:21:47.204Z,15.05
2022-08-17T02:24:17.765Z,15.14
2022-08-17T02:27:04.615Z,15.17
2022-08-17T02:29:31.299Z,15.07
2022-08-17T02:31:58.662Z,15.16
2022-08-17T02:34:25.835Z,14.84
2022-08-17T02:36:53.414Z,14.44
2022-08-17T02:39:20.165Z,15.07
2022-08-17T02:41:46.866Z,14.97
2022-08-17T02:44:13.927Z,15.10
2022-08-17T02:47:00.992Z,14.66
2022-08-17T02:49:27.665Z,15.02
2022-08-17T02:51:54.276Z,15.03
2022-08-17T02:54:41.756Z,14.76
2022-08-17T02:57:07.863Z,14.68
2022-08-17T02:59:34.496Z,14.54
2022-08-17T03:02:03.506Z,14.80
2022-08-17T03:04:30.952Z,14.68
2022-08-17T03:07:01.528Z,15.07
2022-08-17T03:09:28.161Z,14.75
2022-08-17T03:11:55.824Z,14.68
2022-08-17T03:14:26.252Z,15.10
2022-08-17T03:16:53.021Z,14.11
2022-08-17T03:19:19.615Z,14.84
2022-08-17T03:21:46.218Z,14.94
2022-08-17T03:24:21.622Z,14.77
2022-08-17T03:26:55.423Z,15.19
2022-08-17T03:29:22.037Z,14.90
2022-08-17T03:31:49.156Z,15.08
2022-08-17T03:34:16.262Z,14.88
2022-08-17T03:36:42.975Z,14.28
2022-08-17T03:39:09.669Z,13.62
2022-08-17T03:41:36.345Z,14.77
2022-08-17T03:44:03.297Z,14.76
2022-08-17T03:46:48.841Z,14.33
2022-08-17T03:49:34.057Z,14.65
2022-08-17T03:52:19.375Z,14.80
2022-08-17T03:55:04.663Z,13.56
2022-08-17T03:57:31.286Z,14.99
2022-08-17T03:59:57.992Z,14.77
2022-08-17T04:02:26.962Z,14.48
2022-08-17T04:04:54.245Z,14.53
2022-08-17T04:07:21.638Z,13.41
2022-08-17T04:09:52.341Z,14.03
2022-08-17T04:12:20.211Z,14.47
2022-08-17T04:14:53.521Z,14.64
2022-08-17T04:17:26.000Z,14.63
2022-08-17T04:19:53.034Z,13.79
2022-08-17T04:22:31.318Z,13.57
2022-08-17T04:25:17.706Z,14.93
2022-08-17T04:27:44.329Z,15.18
2022-08-17T04:30:11.660Z,14.74
2022-08-17T04:33:06.453Z,15.35
2022-08-17T04:35:48.129Z,15.41
2022-08-17T04:38:27.140Z,15.36
2022-08-17T04:41:12.402Z,15.00
2022-08-17T04:43:40.159Z,15.06
2022-08-17T04:46:17.728Z,15.51
2022-08-17T04:48:46.980Z,15.73
2022-08-17T04:51:16.215Z,15.81
2022-08-17T04:53:44.491Z,14.47
2022-08-17T04:56:16.730Z,14.93
2022-08-17T04:58:46.944Z,15.80
2022-08-17T05:01:14.465Z,15.93
2022-08-17T05:03:41.969Z,16.24
2022-08-17T05:06:08.900Z,16.25
2022-08-17T05:08:35.546Z,16.15
2022-08-17T05:11:02.257Z,16.22
2022-08-17T05:13:31.591Z,16.20
2022-08-17T05:16:02.264Z,16.25
2022-08-17T05:18:29.199Z,16.47
2022-08-17T05:20:55.936Z,17.19
2022-08-17T05:23:24.846Z,18.39
2022-08-17T05:25:52.350Z,20.00
2022-08-17T05:28:23.502Z,20.91
2022-08-17T05:30:55.309Z,23.26
2022-08-17T05:33:27.218Z,24.59
2022-08-17T05:35:55.362Z,26.43
2022-08-17T05:38:22.864Z,26.95
2022-08-17T05:40:49.756Z,28.19
2022-08-17T05:43:27.269Z,30.34
2022-08-17T05:46:16.430Z,31.97
2022-08-17T05:48:50.815Z,32.66
2022-08-17T05:51:23.738Z,34.16
2022-08-17T05:54:07.712Z,34.91
2022-08-17T05:56:43.467Z,35.70
2022-08-17T05:59:31.772Z,36.54
2022-08-17T06:02:20.613Z,37.03
2022-08-17T06:05:11.473Z,37.50
2022-08-17T06:08:15.018Z,38.63
2022-08-17T06:11:00.194Z,39.17
2022-08-17T06:13:43.174Z,39.84
2022-08-17T06:16:32.944Z,40.28
2022-08-17T06:19:20.522Z,41.11
2022-08-17T06:21:48.862Z,41.60
2022-08-17T06:24:28.972Z,42.19
2022-08-17T06:26:57.718Z,42.23
2022-08-17T06:30:02.293Z,42.56
2022-08-17T06:32:29.030Z,43.34
2022-08-17T06:34:55.831Z,43.57
2022-08-17T06:37:42.604Z,44.09
2022-08-17T06:40:18.421Z,44.45
2022-08-17T06:43:05.769Z,44.72
2022-08-17T06:45:39.234Z,44.67
2022-08-17T06:48:25.687Z,43.97
2022-08-17T06:51:00.026Z,42.39
2022-08-17T06:53:40.798Z,41.67
2022-08-17T06:56:12.168Z,39.77
2022-08-17T06:58:40.440Z,38.82
2022-08-17T07:01:15.370Z,37.35
2022-08-17T07:03:54.905Z,35.61
2022-08-17T07:06:27.826Z,34.07
2022-08-17T07:09:03.910Z,33.71
2022-08-17T07:11:38.527Z,32.36
2022-08-17T07:14:20.271Z,31.54
2022-08-17T07:16:51.726Z,31.16
2022-08-17T07:19:20.276Z,30.35
2022-08-17T07:22:04.769Z,30.57
2022-08-17T07:24:33.639Z,30.15
2022-08-17T07:27:24.094Z,29.47
2022-08-17T07:29:56.689Z,29.26
2022-08-17T07:32:31.810Z,29.41
2022-08-17T07:35:23.153Z,29.12
2022-08-17T07:38:25.584Z,28.75
2022-08-17T07:41:06.037Z,28.45
2022-08-17T07:43:39.802Z,27.40
2022-08-17T07:46:25.063Z,27.98
2022-08-17T07:48:56.199Z,26.29
2022-08-17T07:51:31.321Z,27.35
2022-08-17T07:54:22.341Z,27.69
2022-08-17T07:57:03.475Z,27.07
2022-08-17T07:59:37.186Z,27.34
2022-08-17T08:02:28.979Z,27.07
2022-08-17T08:05:10.145Z,27.49
2022-08-17T08:07:50.658Z,27.60
2022-08-17T08:10:30.977Z,26.82
2022-08-17T08:13:14.488Z,27.74
2022-08-17T08:15:53.909Z,27.54
2022-08-17T08:18:54.883Z,27.63
2022-08-17T08:21:46.905Z,27.32
2022-08-17T08:24:51.502Z,28.11
2022-08-17T08:27:27.341Z,28.20
2022-08-17T08:30:08.890Z,27.97
2022-08-17T08:32:54.274Z,28.57
2022-08-17T08:35:31.575Z,28.09
2022-08-17T08:38:03.420Z,28.67
2022-08-17T08:40:58.117Z,28.71
2022-08-17T08:44:00.854Z,28.78
2022-08-17T08:47:02.282Z,28.46
2022-08-17T08:50:03.363Z,28.68
2022-08-17T08:52:42.857Z,28.79
2022-08-17T08:55:22.444Z,28.74
2022-08-17T08:57:54.694Z,28.75
2022-08-17T09:00:23.014Z,28.50
2022-08-17T09:03:10.952Z,28.72
2022-08-17T09:06:33.600Z,28.80
2022-08-17T09:09:07.961Z,28.83
2022-08-17T09:12:01.245Z,28.42
2022-08-17T09:14:45.452Z,28.92
2022-08-17T09:17:14.994Z,28.97
2022-08-17T09:20:05.009Z,29.13
2022-08-17T09:22:38.050Z,28.76
2022-08-17T09:25:07.661Z,29.38
2022-08-17T09:27:52.777Z,27.98
2022-08-17T09:30:19.906Z,29.45
2022-08-17T09:32:49.939Z,29.18
2022-08-17T09:35:22.928Z,29.58
2022-08-17T09:38:11.410Z,29.43
2022-08-17T09:40:41.290Z,29.40
2022-08-17T09:43:43.836Z,29.29
2022-08-17T09:46:25.024Z,29.64
2022-08-17T09:48:57.343Z,28.73
2022-08-17T09:51:35.747Z,29.70
2022-08-17T09:54:34.941Z,28.45
2022-08-17T09:57:25.687Z,28.98
2022-08-17T10:00:12.158Z,29.13
2022-08-17T10:02:41.418Z,28.88
2022-08-17T10:05:37.852Z,27.92
2022-08-17T10:08:22.880Z,28.26
2022-08-17T10:11:05.719Z,28.52
2022-08-17T10:13:38.332Z,28.53
2022-08-17T10:16:14.788Z,28.60
2022-08-17T10:19:13.930Z,28.46
2022-08-17T10:22:01.581Z,28.47
2022-08-17T10:25:23.966Z,28.38
2022-08-17T10:28:20.224Z,27.08
2022-08-17T10:30:50.491Z,29.02
2022-08-17T10:33:21.107Z,28.61
2022-08-17T10:36:13.093Z,29.23
2022-08-17T10:39:17.114Z,29.15
2022-08-17T10:41:45.534Z,29.42
2022-08-17T10:44:51.200Z,29.46
2022-08-17T10:47:18.776Z,29.27
2022-08-17T10:49:53.755Z,29.17
2022-08-17T10:52:20.881Z,29.41
2022-08-17T10:54:58.212Z,29.45
2022-08-17T10:57:34.543Z,29.50
2022-08-17T11:00:10.429Z,29.49
2022-08-17T11:02:41.334Z,29.45
2022-08-17T11:05:24.294Z,29.42
2022-08-17T11:08:15.217Z,29.44
2022-08-17T11:11:08.898Z,29.36
2022-08-17T11:14:11.352Z,29.41
2022-08-17T11:16:43.099Z,29.45
2022-08-17T11:19:31.977Z,29.37
2022-08-17T11:22:06.132Z,29.59
2022-08-17T11:24:36.158Z,29.47
2022-08-17T11:27:19.334Z,28.77
2022-08-17T11:29:53.531Z,29.43
2022-08-17T11:32:33.563Z,29.35
2022-08-17T11:35:12.523Z,29.56
2022-08-17T11:38:07.776Z,29.15
2022-08-17T11:40:55.336Z,29.45
2022-08-17T11:43:52.423Z,29.76
2022-08-17T11:46:58.035Z,29.89
2022-08-17T11:50:16.146Z,30.00
2022-08-17T11:52:48.288Z,29.92
2022-08-17T11:55:40.763Z,29.87
2022-08-17T11:58:29.261Z,29.78
2022-08-17T12:01:00.919Z,28.70
2022-08-17T12:03:33.714Z,29.83
2022-08-17T12:06:17.725Z,29.89
2022-08-17T12:08:48.049Z,29.60
2022-08-17T12:11:55.159Z,30.07
2022-08-17T12:14:45.119Z,29.80
2022-08-17T12:17:14.544Z,29.57
2022-08-17T12:20:24.295Z,30.03
2022-08-17T12:23:15.392Z,29.30
2022-08-17T12:25:52.540Z,29.75
2022-08-17T12:28:39.549Z,30.10
2022-08-17T12:31:07.754Z,29.84
2022-08-17T12:33:34.399Z,29.55
2022-08-17T12:36:07.531Z,28.98
2022-08-17T12:38:36.223Z,29.76
2022-08-17T12:41:22.928Z,28.75
2022-08-17T12:44:03.631Z,29.95
2022-08-17T12:46:44.253Z,29.71
2022-08-17T12:49:32.135Z,29.95
2022-08-17T12:52:23.808Z,30.01
2022-08-17T12:54:57.240Z,29.71
2022-08-17T12:57:35.302Z,29.52
2022-08-17T13:00:17.690Z,29.76
2022-08-17T13:02:46.742Z,29.58
2022-08-17T13:05:21.068Z,29.66
2022-08-17T13:07:47.835Z,29.62
2022-08-17T13:10:30.059Z,30.08
2022-08-17T13:13:03.753Z,30.10
2022-08-17T13:15:44.920Z,30.09
2022-08-17T13:18:36.581Z,30.07
2022-08-17T13:21:03.239Z,29.47
2022-08-17T13:23:32.284Z,29.84
2022-08-17T13:26:05.749Z,28.84
2022-08-17T13:28:36.058Z,30.12
2022-08-17T13:31:28.317Z,30.11
2022-08-17T13:34:26.955Z,30.11
2022-08-17T13:37:19.764Z,30.10
2022-08-17T13:39:49.880Z,29.25
2022-08-17T13:42:51.879Z,30.11
2022-08-17T13:45:36.791Z,30.05
2022-08-17T13:48:20.262Z,30.09
2022-08-17T13:50:49.115Z,29.74
2022-08-17T13:53:36.406Z,29.51
2022-08-17T13:57:00.487Z,30.07
2022-08-17T13:59:52.924Z,29.86
2022-08-17T14:02:21.864Z,29.94
2022-08-17T14:04:48.637Z,28.71
2022-08-17T14:07:16.096Z,29.85
2022-08-17T14:10:06.493Z,29.84
2022-08-17T14:12:34.229Z,28.90
2022-08-17T14:15:01.071Z,29.68
2022-08-17T14:17:29.483Z,28.61
2022-08-17T14:19:56.192Z,28.06
2022-08-17T14:22:30.746Z,29.19
2022-08-17T14:24:58.182Z,29.20
2022-08-17T14:27:28.107Z,29.03
2022-08-17T14:29:55.598Z,29.42
2022-08-17T14:32:24.888Z,29.42
2022-08-17T14:34:51.777Z,29.20
2022-08-17T14:37:19.251Z,29.46
2022-08-17T14:39:46.107Z,29.14
2022-08-17T14:42:12.894Z,28.20
2022-08-17T14:44:39.626Z,28.58
2022-08-17T14:47:07.556Z,29.29
2022-08-17T14:49:34.282Z,29.55
2022-08-17T14:52:01.437Z,29.47
2022-08-17T14:54:32.882Z,28.24
2022-08-17T14:57:17.707Z,28.61
2022-08-17T14:59:53.417Z,27.92
2022-08-17T15:02:23.022Z,28.77
2022-08-17T15:05:04.019Z,29.36
2022-08-17T15:07:31.363Z,28.24
2022-08-17T15:10:00.703Z,28.25
2022-08-17T15:12:32.341Z,28.92
2022-08-17T15:15:00.720Z,28.92
2022-08-17T15:17:43.660Z,28.91
2022-08-17T15:20:15.180Z,28.76
2022-08-17T15:22:42.348Z,28.43
2022-08-17T15:25:10.613Z,28.98
2022-08-17T15:27:37.218Z,29.01
2022-08-17T15:30:05.519Z,28.99
2022-08-17T15:32:35.297Z,29.02
2022-08-17T15:35:02.618Z,29.00
2022-08-17T15:37:29.525Z,27.52
2022-08-17T15:39:56.348Z,28.82
2022-08-17T15:42:23.311Z,28.95
2022-08-17T15:44:50.255Z,28.61
2022-08-17T15:47:19.927Z,28.88
2022-08-17T15:49:46.599Z,28.09
2022-08-17T15:52:20.311Z,28.29
2022-08-17T15:54:56.789Z,28.72
2022-08-17T15:57:24.904Z,28.51
2022-08-17T15:59:55.260Z,28.65
2022-08-17T16:03:45.352Z,28.25
2022-08-17T16:05:18.825Z,27.62
2022-08-17T16:07:46.747Z,28.46
2022-08-17T16:10:18.630Z,27.62
2022-08-17T16:12:46.842Z,28.10
2022-08-17T16:15:13.897Z,28.43
2022-08-17T16:17:41.559Z,28.26
2022-08-17T16:20:09.966Z,27.97
2022-08-17T16:22:47.819Z,28.53
2022-08-17T16:25:19.753Z,28.06
2022-08-17T16:27:47.051Z,27.34
2022-08-17T16:30:17.342Z,28.29
2022-08-17T16:32:44.969Z,27.70
2022-08-17T16:35:12.011Z,27.96
2022-08-17T16:37:41.802Z,27.78
2022-08-17T16:40:12.837Z,28.15
2022-08-17T16:42:39.756Z,27.62
2022-08-17T16:45:20.584Z,28.16
2022-08-17T16:47:52.629Z,27.76
2022-08-17T16:50:22.695Z,26.53
2022-08-17T16:52:49.675Z,27.50
2022-08-17T16:55:20.095Z,26.07
2022-08-17T16:57:50.156Z,27.38
2022-08-17T17:00:17.656Z,26.82
2022-08-17T17:02:47.336Z,27.31
2022-08-17T17:05:22.439Z,27.36
2022-08-17T17:08:04.039Z,27.47
2022-08-17T17:10:43.159Z,26.92
2022-08-17T17:13:13.348Z,27.41
2022-08-17T17:15:47.441Z,27.35
2022-08-17T17:18:15.436Z,26.87
2022-08-17T17:20:49.965Z,27.12
2022-08-17T17:23:55.370Z,26.97
2022-08-17T17:26:41.590Z,26.65
2022-08-17T17:29:20.487Z,26.27
2022-08-17T17:32:24.056Z,25.95
2022-08-17T17:35:00.567Z,25.60
2022-08-17T17:37:32.383Z,24.07
2022-08-17T17:40:01.815Z,24.46
2022-08-17T17:42:31.383Z,24.53
2022-08-17T17:45:06.953Z,24.45
2022-08-17T17:47:34.493Z,24.04
2022-08-17T17:50:01.499Z,23.65
2022-08-17T17:52:36.297Z,24.09
2022-08-17T17:55:07.775Z,24.06
2022-08-17T17:57:57.079Z,23.31
2022-08-17T18:01:01.389Z,23.80
2022-08-17T18:03:50.527Z,23.36
2022-08-17T18:06:46.681Z,23.35
2022-08-17T18:09:32.813Z,23.18
2022-08-17T18:12:40.769Z,22.65
2022-08-17T18:15:21.516Z,22.97
2022-08-17T18:18:17.079Z,22.90
2022-08-17T18:20:53.989Z,22.50
2022-08-17T18:23:27.564Z,21.85
2022-08-17T18:25:55.730Z,20.90
2022-08-17T18:28:30.618Z,22.36
2022-08-17T18:31:16.868Z,22.27
2022-08-17T18:33:45.625Z,21.99
2022-08-17T18:36:12.586Z,21.71
2022-08-17T18:38:41.518Z,21.59
2022-08-17T18:41:23.851Z,21.62
2022-08-17T18:44:38.087Z,21.92
2022-08-17T18:47:16.301Z,20.28
2022-08-17T18:49:44.677Z,20.58
2022-08-17T18:52:16.340Z,21.60
2022-08-17T18:55:01.787Z,21.50
2022-08-17T18:57:41.519Z,21.39
2022-08-17T19:00:38.193Z,21.30
2022-08-17T19:03:25.573Z,21.22
2022-08-17T19:06:14.872Z,20.47
2022-08-17T19:08:41.649Z,20.56
2022-08-17T19:11:23.742Z,21.03
2022-08-17T19:13:50.295Z,20.93
2022-08-17T19:16:43.758Z,20.81
2022-08-17T19:19:49.355Z,20.60
2022-08-17T19:22:37.065Z,20.05
2022-08-17T19:25:17.115Z,19.97
2022-08-17T19:27:57.401Z,19.92
2022-08-17T19:30:25.044Z,19.87
2022-08-17T19:32:53.099Z,19.97
2022-08-17T19:35:20.474Z,19.55
2022-08-17T19:37:54.154Z,19.36
2022-08-17T19:43:38.887Z,19.88
2022-08-17T19:46:26.134Z,19.86
2022-08-17T19:49:15.699Z,19.08
2022-08-17T19:51:57.268Z,19.00
2022-08-17T19:54:31.360Z,19.78
2022-08-17T19:57:20.237Z,19.54
2022-08-17T20:00:21.707Z,19.26
2022-08-17T20:02:55.461Z,19.80
2022-08-17T20:06:09.238Z,19.12
2022-08-17T20:08:39.316Z,19.77
2022-08-17T20:11:11.339Z,19.49
2022-08-17T20:13:42.071Z,18.74
2022-08-17T20:16:09.989Z,18.33
2022-08-17T20:18:58.326Z,19.42
2022-08-17T20:21:33.984Z,19.25
2022-08-17T20:24:19.964Z,19.17
2022-08-17T20:27:01.533Z,18.58
2022-08-17T20:29:40.234Z,19.00
2022-08-17T20:32:17.495Z,18.45
2022-08-17T20:34:45.511Z,18.57
2022-08-17T20:37:15.427Z,19.06
2022-08-17T20:39:43.172Z,19.04
2022-08-17T20:42:21.805Z,19.01
2022-08-17T20:44:53.830Z,18.57
2022-08-17T20:48:00.818Z,18.90
2022-08-17T20:50:36.708Z,18.42
2022-08-17T20:53:06.055Z,18.20
2022-08-17T20:55:35.768Z,18.78
2022-08-17T20:58:24.844Z,18.76
2022-08-17T21:00:57.911Z,18.74
2022-08-17T21:03:25.110Z,18.70
2022-08-17T21:06:17.314Z,18.38
2022-08-17T21:08:57.665Z,17.27
2022-08-17T21:11:56.882Z,18.55
2022-08-17T21:14:26.479Z,17.98
2022-08-17T21:17:30.058Z,18.42
2022-08-17T21:20:12.590Z,17.82
2022-08-17T21:23:28.312Z,18.34
2022-08-17T21:26:17.499Z,18.32
2022-08-17T21:29:29.953Z,18.09
2022-08-17T21:32:01.872Z,18.28
2022-08-17T21:34:32.864Z,18.28
2022-08-17T21:37:24.311Z,18.28
2022-08-17T21:40:18.638Z,17.88
2022-08-17T21:42:48.283Z,17.84
2022-08-17T21:45:30.445Z,18.14
2022-08-17T21:48:13.634Z,18.09
2022-08-17T21:50:41.836Z,17.75
2022-08-17T21:53:09.146Z,17.83
2022-08-17T21:55:36.150Z,17.44
2022-08-17T21:58:40.113Z,18.13
2022-08-17T22:01:21.987Z,17.85
2022-08-17T22:03:56.055Z,17.62
2022-08-17T22:06:34.215Z,17.55
2022-08-17T22:09:53.717Z,17.88
2022-08-17T22:12:22.260Z,17.49
2022-08-17T22:15:04.229Z,16.90
2022-08-17T22:17:35.508Z,17.19
2022-08-17T22:20:14.503Z,16.04
2022-08-17T22:23:09.194Z,17.73
2022-08-17T22:25:38.931Z,17.34
2022-08-17T22:28:10.703Z,17.27
2022-08-17T22:31:00.592Z,17.48
2022-08-17T22:33:33.983Z,17.70
2022-08-17T22:36:24.635Z,17.71
2022-08-17T22:38:58.959Z,17.69
2022-08-17T22:41:42.668Z,17.33
2022-08-17T22:44:28.499Z,17.70
2022-08-17T22:46:59.265Z,17.37
2022-08-17T22:49:38.538Z,17.45
2022-08-17T22:52:56.312Z,17.09
2022-08-17T22:55:41.419Z,17.42
2022-08-17T22:58:30.595Z,17.54
2022-08-17T23:00:57.242Z,16.79
2022-08-17T23:03:25.830Z,15.91
2022-08-17T23:06:06.925Z,17.04
2022-08-17T23:08:36.776Z,16.30
2022-08-17T23:11:03.434Z,16.20
2022-08-17T23:13:33.609Z,16.95
2022-08-17T23:16:00.396Z,16.91
2022-08-17T23:18:27.368Z,17.26
2022-08-17T23:20:54.032Z,16.82
2022-08-17T23:23:23.699Z,16.46
2022-08-17T23:25:50.550Z,17.07
2022-08-17T23:28:17.377Z,17.01
2022-08-17T23:30:44.284Z,16.39
2022-08-17T23:33:30.064Z,16.92
2022-08-17T23:35:59.046Z,16.93
2022-08-17T23:38:27.536Z,16.74
2022-08-17T23:40:54.749Z,17.01
2022-08-17T23:43:24.323Z,16.89
2022-08-17T23:45:54.113Z,16.88
2022-08-17T23:48:34.932Z,16.59
2022-08-17T23:51:04.169Z,16.72
2022-08-17T23:53:31.150Z,16.97
2022-08-17T23:56:09.174Z,17.05
2022-08-17T23:58:39.013Z,16.98
